^^
Grace C. Lehan Memorial Weather Station Historical Data
Daily Summary for November 19, 2021 Units:  Metric    English   Both
Daily Weekly Monthly Yearly
  High: Low: Average:
Temperature: 8.8 °C 1.2 °C 5.7 °C
Dew Point: 6.6 °C -2.9 °C 1.2 °C
Humidity: 95% 51.3% 74%
Wind Speed: 20.9km/h 0km/h 4.7km/h
Wind Gust: 40.2km/h - -
Wind- - WNW
Pressure: 1030 hPa 1013.4 hPa -
Precipitation: 2.79 mm    
 
 
Tabular Data for November 19, 2021
Time Temperature Dew Point Pressure Wind Wind Speed Wind Gust Humidity Rainfall Rate (Hourly) solar
00:04 7.9 °C 6.6 °C 1014.1 hPa NNW 3.7 km/h 19.3 km/h 91% 1.52 mm 0 W/m2
00:09 7.8 °C 6.4 °C 1014.4 hPa NNW 1.8 km/h 12.9 km/h 91% 1.27 mm 0 W/m2
00:14 7.7 °C 6.3 °C 1014.1 hPa NNW 1.9 km/h 12.9 km/h 91% 1.27 mm 0 W/m2
00:19 7.7 °C 6.3 °C 1013.8 hPa NNW 1.3 km/h 12.9 km/h 91% 1.27 mm 0 W/m2
00:24 7.6 °C 6.2 °C 1014.1 hPa NW 1.8 km/h 12.9 km/h 91% 1.52 mm 0 W/m2
00:29 7.4 °C 6.1 °C 1014.1 hPa NW 2.1 km/h 12.9 km/h 91% 1.52 mm 0 W/m2
00:34 7.4 °C 6 °C 1014.1 hPa NW 4 km/h 14.5 km/h 91% 1.52 mm 0 W/m2
00:39 7.3 °C 5.9 °C 1014.1 hPa NW 1.8 km/h 14.5 km/h 91.1% 1.27 mm 0 W/m2
00:44 7.2 °C 6 °C 1014.1 hPa NNW 0.5 km/h 14.5 km/h 92% 1.27 mm 0 W/m2
00:49 7.2 °C 5.9 °C 1014.1 hPa NNW 1.8 km/h 14.5 km/h 91.7% 1.52 mm 0 W/m2
00:54 7.1 °C 5.9 °C 1013.8 hPa NNW 0.5 km/h 14.5 km/h 92% 1.78 mm 0 W/m2
00:59 7.1 °C 5.8 °C 1013.8 hPa Calm   14.5 km/h 92% 2.29 mm 0 W/m2
01:04 6.9 °C 5.7 °C 1013.8 hPa NNW 1.1 km/h 14.5 km/h 92% 2.29 mm 0 W/m2
01:09 6.8 °C 5.6 °C 1013.8 hPa NNW 2.9 km/h 16.1 km/h 91.9% 2.03 mm 0 W/m2
01:14 6.6 °C 5.3 °C 1013.4 hPa NNW 1.9 km/h 16.1 km/h 91.2% 2.29 mm 0 W/m2
01:19 6.4 °C 5 °C 1014.1 hPa NNW 1 km/h 16.1 km/h 91% 2.54 mm 0 W/m2
01:24 6.2 °C 4.9 °C 1014.1 hPa Calm   16.1 km/h 91% 2.54 mm 0 W/m2
01:29 6.1 °C 4.8 °C 1014.4 hPa Calm   16.1 km/h 91% 2.54 mm 0 W/m2
01:34 6.1 °C 4.7 °C 1014.4 hPa Calm   16.1 km/h 91% 2.54 mm 0 W/m2
01:39 5.9 °C 4.6 °C 1014.4 hPa Calm     91.2% 2.29 mm 0 W/m2
01:44 5.9 °C 4.7 °C 1014.1 hPa Calm     92% 2.29 mm 0 W/m2
01:49 5.8 °C 4.6 °C 1014.1 hPa Calm     92% 2.29 mm 0 W/m2
01:54 5.8 °C 4.7 °C 1014.1 hPa Calm     92% 2.29 mm 0 W/m2
01:59 5.9 °C 4.7 °C 1014.4 hPa Calm     92% 2.29 mm 0 W/m2
02:04 5.9 °C 4.7 °C 1014.4 hPa Calm     92% 2.29 mm 0 W/m2
02:09 5.9 °C 4.8 °C 1014.4 hPa Calm     92.9% 1.02 mm 0 W/m2
02:14 5.9 °C 4.8 °C 1014.4 hPa Calm     93% 1.02 mm 0 W/m2
02:19 5.9 °C 4.8 °C 1013.8 hPa Calm     93% 1.02 mm 0 W/m2
02:24 5.9 °C 4.8 °C 1013.8 hPa Calm     93% 1.02 mm 0 W/m2
02:29 5.9 °C 4.8 °C 1013.8 hPa Calm     93% 1.02 mm 0 W/m2
02:34 5.9 °C 4.8 °C 1014.1 hPa Calm     93% 1.02 mm 0 W/m2
02:39 5.9 °C 4.8 °C 1014.4 hPa Calm     93% 0.25 mm 0 W/m2
02:44 5.8 °C 4.8 °C 1014.4 hPa Calm     93% 0.25 mm 0 W/m2
02:49 5.8 °C 4.8 °C 1014.4 hPa Calm     93% 0.25 mm 0 W/m2
02:54 5.8 °C 4.8 °C 1014.4 hPa Calm     93% 0.25 mm 0 W/m2
02:59 5.8 °C 4.8 °C 1014.4 hPa Calm     93% 0.25 mm 0 W/m2
03:04 5.8 °C 4.7 °C 1014.4 hPa Calm     93% 0.25 mm 0 W/m2
03:09 5.7 °C 4.7 °C 1014.1 hPa Calm     93% 0 mm 0 W/m2
03:14 5.7 °C 4.6 °C 1014.1 hPa Calm     93% 0 mm 0 W/m2
03:19 5.6 °C 4.6 °C 1014.4 hPa Calm     93% 0 mm 0 W/m2
03:24 5.6 °C 4.7 °C 1014.8 hPa Calm     93.9% 0 mm 0 W/m2
03:29 5.6 °C 4.6 °C 1014.8 hPa Calm     93.5% 0 mm 0 W/m2
03:34 5.5 °C 4.4 °C 1014.8 hPa Calm     93% 0 mm 0 W/m2
03:39 5.4 °C 4.4 °C 1014.8 hPa Calm     93% 0 mm 0 W/m2
03:44 5.4 °C 4.4 °C 1015.1 hPa Calm     93.2% 0 mm 0 W/m2
03:49 5.3 °C 4.4 °C 1015.1 hPa Calm     93.9% 0 mm 0 W/m2
03:54 5.3 °C 4.4 °C 1015.5 hPa Calm     94% 0 mm 0 W/m2
03:59 5.2 °C 4.2 °C 1015.5 hPa Calm     93.5% 0 mm 0 W/m2
04:09 5.1 °C 4.2 °C 1015.5 hPa Calm     94% 0 mm 0 W/m2
04:14 4.9 °C 4.1 °C 1015.5 hPa Calm     94% 0 mm 0 W/m2
04:19 4.8 °C 3.9 °C 1015.5 hPa Calm     93.9% 0 mm 0 W/m2
04:24 4.8 °C 3.9 °C 1015.5 hPa Calm     94% 0 mm 0 W/m2
04:29 4.7 °C 3.8 °C 1015.5 hPa Calm     94% 0 mm 0 W/m2
04:34 4.7 °C 3.8 °C 1015.5 hPa Calm     94% 0 mm 0 W/m2
04:39 4.6 °C 3.7 °C 1015.5 hPa Calm     94% 0 mm 0 W/m2
04:44 4.5 °C 3.6 °C 1015.5 hPa Calm     94% 0 mm 0 W/m2
04:49 4.4 °C 3.6 °C 1015.5 hPa Calm   1.6 km/h 94% 0 mm 0 W/m2
04:54 4.4 °C 3.5 °C 1015.8 hPa Calm   1.6 km/h 94% 0 mm 0 W/m2
04:59 4.4 °C 3.5 °C 1015.8 hPa Calm   1.6 km/h 94% 0 mm 0 W/m2
05:04 4.3 °C 3.4 °C 1016.1 hPa Calm   1.6 km/h 94% 0 mm 0 W/m2
05:09 4.3 °C 3.4 °C 1016.1 hPa Calm     94% 0 mm 0 W/m2
05:14 4.3 °C 3.4 °C 1016.1 hPa Calm     94% 0 mm 0 W/m2
05:19 4.3 °C 3.4 °C 1016.1 hPa NNW 0.6 km/h 6.4 km/h 94% 0 mm 0 W/m2
05:24 4.3 °C 3.4 °C 1016.1 hPa WNW 1.4 km/h 11.3 km/h 94% 0 mm 0 W/m2
05:29 4.2 °C 3.3 °C 1016.1 hPa Calm   11.3 km/h 94% 0 mm 0 W/m2
05:34 4.2 °C 3.3 °C 1016.5 hPa WNW 1.4 km/h 11.3 km/h 94% 0 mm 0 W/m2
05:39 4.1 °C 3.2 °C 1016.5 hPa WNW 1.8 km/h 8 km/h 94% 0 mm 0 W/m2
05:44 4 °C 3.1 °C 1016.5 hPa NW 3.1 km/h 9.7 km/h 94% 0 mm 0 W/m2
05:49 3.9 °C 3 °C 1016.5 hPa WNW 3.1 km/h 14.5 km/h 94% 0 mm 0 W/m2
05:54 3.8 °C 2.8 °C 1016.8 hPa WNW 1.1 km/h 14.5 km/h 93.4% 0 mm 0 W/m2
05:59 3.8 °C 2.8 °C 1016.8 hPa WNW 0.3 km/h 14.5 km/h 93% 0 mm 0 W/m2
06:04 3.8 °C 2.7 °C 1016.8 hPa Calm   14.5 km/h 93% 0 mm 0 W/m2
06:09 3.7 °C 2.7 °C 1016.8 hPa Calm     93% 0 mm 0 W/m2
06:14 3.7 °C 2.7 °C 1016.8 hPa Calm     93% 0 mm 0 W/m2
06:19 3.6 °C 2.5 °C 1016.8 hPa Calm     92.7% 0 mm 0 W/m2
06:24 3.6 °C 2.4 °C 1016.8 hPa Calm     92% 0 mm 0 W/m2
06:29 3.5 °C 2.3 °C 1016.8 hPa Calm     92% 0 mm 0 W/m2
06:34 3.4 °C 2.3 °C 1017.2 hPa Calm     92% 0 mm 0 W/m2
06:39 3.4 °C 2.2 °C 1017.2 hPa Calm     92% 0 mm 0 W/m2
06:44 3.3 °C 2.2 °C 1017.2 hPa Calm     92% 0 mm 0 W/m2
06:49 3.3 °C 2.1 °C 1017.2 hPa Calm     92% 0 mm 7 W/m2
06:54 3.3 °C 2.2 °C 1017.5 hPa Calm     92.5% 0 mm 9 W/m2
06:59 3.3 °C 2.3 °C 1017.5 hPa Calm     93% 0 mm 9 W/m2
07:04 3.3 °C 2.3 °C 1017.5 hPa Calm     93% 0 mm 12 W/m2
07:09 3.3 °C 2.3 °C 1017.5 hPa Calm     93% 0 mm 19 W/m2
07:14 3.3 °C 2.3 °C 1017.8 hPa Calm     93% 0 mm 19 W/m2
07:19 3.4 °C 2.4 °C 1017.8 hPa Calm     93% 0 mm 21 W/m2
07:24 3.5 °C 2.5 °C 1017.8 hPa Calm     93% 0 mm 32 W/m2
07:29 3.6 °C 2.7 °C 1017.8 hPa Calm     93.6% 0 mm 32 W/m2
07:34 3.7 °C 2.8 °C 1018.2 hPa WNW 0.2 km/h 3.2 km/h 94% 0 mm 25 W/m2
07:39 3.7 °C 2.8 °C 1018.2 hPa WNW 0.8 km/h 3.2 km/h 94% 0 mm 26 W/m2
07:44 3.8 °C 2.9 °C 1018.2 hPa Calm   3.2 km/h 94% 0 mm 30 W/m2
07:49 3.8 °C 3 °C 1018.2 hPa Calm   3.2 km/h 94% 0 mm 37 W/m2
07:54 3.9 °C 3.1 °C 1018.2 hPa WNW 0.3 km/h 6.4 km/h 94% 0 mm 39 W/m2
07:59 4 °C 3.1 °C 1018.5 hPa Calm   6.4 km/h 94% 0 mm 37 W/m2
08:09 4.1 °C 3.3 °C 1018.5 hPa WNW 0.2 km/h 3.2 km/h 94% 0 mm 114 W/m2
08:14 4.2 °C 3.3 °C 1018.5 hPa WNW 0.5 km/h 6.4 km/h 94% 0 mm 220 W/m2
08:19 4.6 °C 3.8 °C 1018.5 hPa WNW 0.8 km/h 6.4 km/h 94.3% 0 mm 241 W/m2
08:24 5.1 °C 4.4 °C 1018.5 hPa WNW 0.2 km/h 6.4 km/h 95% 0 mm 246 W/m2
08:29 5.7 °C 4.9 °C 1018.8 hPa WNW 1.1 km/h 8 km/h 95% 0 mm 258 W/m2
08:34 5.9 °C 5.1 °C 1018.8 hPa West 1.8 km/h 8 km/h 93.9% 0 mm 128 W/m2
08:39 6.1 °C 4.8 °C 1019.2 hPa West 1.1 km/h 8 km/h 91.8% 0 mm 105 W/m2
08:44 6 °C 4.4 °C 1019.2 hPa West 1.3 km/h 8 km/h 89.6% 0 mm 47 W/m2
08:49 5.8 °C 4 °C 1019.2 hPa West 1 km/h 8 km/h 88% 0 mm 295 W/m2
08:54 5.9 °C 4.1 °C 1019.2 hPa West 3.7 km/h 14.5 km/h 88% 0 mm 287 W/m2
08:59 6.1 °C 4.1 °C 1019.2 hPa West 0.5 km/h 14.5 km/h 87.1% 0 mm 271 W/m2
09:04 6.3 °C 4.2 °C 1019.2 hPa West 0.2 km/h 14.5 km/h 86.3% 0 mm 211 W/m2
09:09 6.4 °C 4.1 °C 1019.5 hPa West 1.3 km/h 8 km/h 85% 0 mm 134 W/m2
09:14 6.5 °C 4 °C 1019.5 hPa West 0.5 km/h 8 km/h 84% 0 mm 132 W/m2
09:19 6.6 °C 4.1 °C 1019.5 hPa West 0.2 km/h 8 km/h 84% 0 mm 142 W/m2
09:24 6.7 °C 4.1 °C 1019.5 hPa Calm   8 km/h 83.1% 0 mm 258 W/m2
09:29 6.8 °C 3.8 °C 1019.5 hPa West 6.8 km/h 19.3 km/h 81.3% 0 mm 220 W/m2
09:34 6.8 °C 3.1 °C 1019.5 hPa NW 2.1 km/h 19.3 km/h 76.8% 0 mm 144 W/m2
09:39 6.8 °C 2.7 °C 1019.9 hPa NW 5.5 km/h 17.7 km/h 75.2% 0 mm 174 W/m2
09:44 6.8 °C 2.4 °C 1019.9 hPa West 3.7 km/h 17.7 km/h 73.3% 0 mm 199 W/m2
09:49 6.9 °C 2 °C 1019.9 hPa West 5.3 km/h 19.3 km/h 70.9% 0 mm 236 W/m2
09:54 6.9 °C 1.7 °C 1019.9 hPa WNW 5.5 km/h 19.3 km/h 69.3% 0 mm 297 W/m2
09:59 7.1 °C 1.5 °C 1019.9 hPa WNW 7.6 km/h 25.7 km/h 67.7% 0 mm 343 W/m2
10:04 7.4 °C 1.7 °C 1020.2 hPa WNW 7.7 km/h 25.7 km/h 67.3% 0 mm 468 W/m2
10:09 7.7 °C 1.4 °C 1020.2 hPa WNW 12.6 km/h 27.4 km/h 64.4% 0 mm 468 W/m2
10:14 8 °C 1.1 °C 1020.2 hPa West 11.4 km/h 27.4 km/h 61.9% 0 mm 499 W/m2
10:19 8.3 °C 1.4 °C 1020.2 hPa WNW 12.7 km/h 27.4 km/h 61.7% 0 mm 512 W/m2
10:24 8.6 °C 1.1 °C 1020.2 hPa WNW 13.4 km/h 27.4 km/h 58.9% 0 mm 524 W/m2
10:29 8.8 °C 0.8 °C 1020.2 hPa WNW 16.6 km/h 29 km/h 57.5% 0 mm 524 W/m2
10:34 8.7 °C 0.7 °C 1020.5 hPa WNW 12.7 km/h 30.6 km/h 57.2% 0 mm 504 W/m2
10:39 8.7 °C 0.8 °C 1020.5 hPa WNW 15.4 km/h 30.6 km/h 57.8% 0 mm 496 W/m2
10:44 8.8 °C 0.7 °C 1020.5 hPa WNW 11.9 km/h 30.6 km/h 57% 0 mm 332 W/m2
10:49 8.8 °C 0.9 °C 1020.5 hPa WNW 11.1 km/h 30.6 km/h 57.5% 0 mm 253 W/m2
10:54 8.8 °C 0.8 °C 1020.5 hPa West 10.8 km/h 35.4 km/h 57.1% 0 mm 223 W/m2
10:59 8.8 °C 0.8 °C 1020.5 hPa WNW 13.8 km/h 35.4 km/h 57.1% 0 mm 253 W/m2
11:04 8.7 °C 0.4 °C 1020.5 hPa NW 14.6 km/h 35.4 km/h 56.2% 0 mm 439 W/m2
11:09 8.7 °C 0.4 °C 1020.5 hPa WNW 15.3 km/h 29 km/h 56.2% 0 mm 439 W/m2
11:14 8.6 °C 0.3 °C 1020.5 hPa WNW 8.2 km/h 29 km/h 56.3% 0 mm 186 W/m2
11:19 8.3 °C -0.1 °C 1020.9 hPa WNW 14.8 km/h 33.8 km/h 55.6% 0 mm 299 W/m2
11:24 8.1 °C -0.2 °C 1020.9 hPa WNW 16.1 km/h 33.8 km/h 56.1% 0 mm 290 W/m2
11:29 7.9 °C -0.2 °C 1020.9 hPa NW 10.8 km/h 33.8 km/h 56.4% 0 mm 179 W/m2
11:34 7.9 °C 0.1 °C 1020.9 hPa NW 8 km/h 33.8 km/h 57.3% 0 mm 276 W/m2
11:39 8.1 °C 0.3 °C 1020.9 hPa NW 10.8 km/h 27.4 km/h 57.7% 0 mm 188 W/m2
11:44 8.2 °C 0.1 °C 1020.9 hPa NW 10.1 km/h 27.4 km/h 56.6% 0 mm 276 W/m2
11:49 8.2 °C -0.1 °C 1020.9 hPa WNW 16.3 km/h 30.6 km/h 55.9% 0 mm 223 W/m2
11:54 8 °C -0.2 °C 1020.9 hPa NW 10.8 km/h 38.6 km/h 56.1% 0 mm 185 W/m2
11:59 7.8 °C -0.1 °C 1020.9 hPa NW 14 km/h 38.6 km/h 57.3% 0 mm 149 W/m2
12:00 7.8 °C -0.2 °C 1020.9 hPa NW 19.3 km/h 38.6 km/h 57% 0 mm 120 W/m2
12:09 7.7 °C -0.1 °C 1020.9 hPa WNW 15.1 km/h 30.6 km/h 58% 0 mm 174 W/m2
12:14 7.7 °C -0.1 °C 1020.9 hPa WNW 13.8 km/h 30.6 km/h 58.2% 0 mm 223 W/m2
12:19 7.6 °C -0.1 °C 1020.9 hPa WNW 11.6 km/h 30.6 km/h 58.2% 0 mm 130 W/m2
12:24 7.6 °C -0.1 °C 1020.9 hPa WNW 17.7 km/h 32.2 km/h 58.1% 0 mm 151 W/m2
12:29 7.5 °C -0.4 °C 1020.9 hPa WNW 18 km/h 32.2 km/h 57% 0 mm 185 W/m2
12:34 7.4 °C -0.4 °C 1020.9 hPa WNW 15.4 km/h 32.2 km/h 57.4% 0 mm 171 W/m2
12:39 7.5 °C -0.2 °C 1020.9 hPa WNW 14 km/h 30.6 km/h 58% 0 mm 171 W/m2
12:44 7.6 °C -0.2 °C 1020.9 hPa WNW 12.2 km/h 30.6 km/h 57.6% 0 mm 120 W/m2
12:49 7.6 °C -0.3 °C 1020.9 hPa NW 7.7 km/h 30.6 km/h 57.2% 0 mm 125 W/m2
12:54 7.7 °C -0.3 °C 1020.9 hPa WNW 8 km/h 30.6 km/h 57.2% 0 mm 127 W/m2
12:59 7.7 °C -0.2 °C 1020.9 hPa WNW 10 km/h 30.6 km/h 57.3% 0 mm 162 W/m2
13:04 7.8 °C -0.2 °C 1020.9 hPa West 7.7 km/h 30.6 km/h 57.2% 0 mm 144 W/m2
13:09 7.9 °C -0.2 °C 1020.9 hPa WNW 8.5 km/h 19.3 km/h 56.5% 0 mm 141 W/m2
13:14 8.1 °C -0.1 °C 1020.9 hPa WNW 14.5 km/h 25.7 km/h 56.4% 0 mm 163 W/m2
13:19 8.3 °C -0.2 °C 1020.9 hPa WNW 10.8 km/h 27.4 km/h 55% 0 mm 90 W/m2
13:24 8.4 °C -0.3 °C 1020.9 hPa WNW 16.9 km/h 38.6 km/h 54.4% 0 mm 44 W/m2
13:29 8.3 °C -0.7 °C 1021.2 hPa WNW 20.9 km/h 40.2 km/h 53.1% 0 mm 204 W/m2
13:34 8.3 °C -0.7 °C 1021.2 hPa WNW 17.9 km/h 40.2 km/h 53% 0 mm 204 W/m2
13:39 8.2 °C -0.6 °C 1021.2 hPa WNW 8.5 km/h 37 km/h 53.8% 0 mm 142 W/m2
13:44 8.3 °C -0.3 °C 1021.2 hPa WNW 11.7 km/h 37 km/h 54.5% 0 mm 243 W/m2
13:49 8.3 °C -0.5 °C 1021.2 hPa WNW 8 km/h 37 km/h 53.8% 0 mm 193 W/m2
13:54 8.3 °C -0.5 °C 1021.2 hPa WNW 10.8 km/h 37 km/h 54% 0 mm 144 W/m2
13:59 8.3 °C -0.4 °C 1021.2 hPa WNW 10.3 km/h 37 km/h 54.2% 0 mm 246 W/m2
14:04 8.3 °C -0.4 °C 1021.2 hPa WNW 12.6 km/h 37 km/h 54% 0 mm 163 W/m2
14:09 8.3 °C -0.6 °C 1021.2 hPa NW 12.2 km/h 29 km/h 53.2% 0 mm 114 W/m2
14:14 8.3 °C -0.4 °C 1021.2 hPa WNW 8.2 km/h 29 km/h 54.1% 0 mm 72 W/m2
14:19 8.3 °C -0.4 °C 1021.6 hPa WNW 12.9 km/h 29 km/h 54% 0 mm 70 W/m2
14:24 8.3 °C -0.7 °C 1021.6 hPa NW 7.9 km/h 29 km/h 53.1% 0 mm 125 W/m2
14:29 8.3 °C -0.7 °C 1021.6 hPa NW 9.5 km/h 29 km/h 53.3% 0 mm 125 W/m2
14:34 8.3 °C -1 °C 1021.6 hPa WNW 12.9 km/h 29 km/h 51.9% 0 mm 88 W/m2
14:39 8.3 °C -1.2 °C 1021.6 hPa WNW 15.8 km/h 25.7 km/h 51.3% 0 mm 49 W/m2
14:44 8.3 °C -1.1 °C 1021.6 hPa West 13.7 km/h 33.8 km/h 51.5% 0 mm 44 W/m2
14:49 8.3 °C -1.2 °C 1021.6 hPa WNW 11.9 km/h 33.8 km/h 51.3% 0 mm 46 W/m2
14:54 8.3 °C -1 °C 1021.6 hPa WNW 9.5 km/h 33.8 km/h 52.1% 0 mm 32 W/m2
14:59 8.2 °C -0.9 °C 1021.6 hPa WNW 8.9 km/h 33.8 km/h 52.4% 0 mm 39 W/m2
15:04 8.2 °C -0.9 °C 1021.6 hPa WNW 9.5 km/h 33.8 km/h 52.6% 0 mm 35 W/m2
15:09 8.1 °C -1.1 °C 1021.9 hPa West 13.4 km/h 30.6 km/h 52.5% 0 mm 44 W/m2
15:14 8 °C -1.3 °C 1021.9 hPa WNW 14 km/h 30.6 km/h 52% 0 mm 51 W/m2
15:19 7.9 °C -1.3 °C 1022.2 hPa WNW 13.8 km/h 30.6 km/h 52% 0 mm 54 W/m2
15:24 7.8 °C -1.1 °C 1022.2 hPa West 8.5 km/h 30.6 km/h 53% 0 mm 47 W/m2
15:29 7.8 °C -1.2 °C 1022.2 hPa West 12.9 km/h 30.6 km/h 52.7% 0 mm 65 W/m2
15:34 7.8 °C -1.2 °C 1022.2 hPa WNW 15.1 km/h 30.6 km/h 52.9% 0 mm 67 W/m2
15:39 7.8 °C -1.1 °C 1022.6 hPa NW 6 km/h 25.7 km/h 53.3% 0 mm 49 W/m2
15:44 7.8 °C -0.9 °C 1022.6 hPa WNW 10.9 km/h 25.7 km/h 54% 0 mm 53 W/m2
15:49 7.7 °C -0.8 °C 1022.9 hPa WNW 8.4 km/h 25.7 km/h 54.5% 0 mm 30 W/m2
15:54 7.7 °C -0.9 °C 1022.9 hPa WNW 8.4 km/h 30.6 km/h 54.7% 0 mm 26 W/m2
15:59 7.6 °C -0.9 °C 1022.9 hPa WNW 9.7 km/h 30.6 km/h 55.2% 0 mm 19 W/m2
16:00 7.4 °C -1 °C 1022.9 hPa WNW 6.4 km/h 30.6 km/h 55% 0 mm 11 W/m2
16:09 7.2 °C -0.7 °C 1023.2 hPa West 7.6 km/h 20.9 km/h 57% 0 mm 9 W/m2
16:14 7.1 °C -0.8 °C 1023.2 hPa WNW 11.7 km/h 24.1 km/h 57.4% 0 mm 7 W/m2
16:19 6.8 °C -0.7 °C 1023.2 hPa WNW 11.7 km/h 27.4 km/h 58.4% 0 mm 5 W/m2
16:24 6.7 °C -0.7 °C 1023.2 hPa WNW 6.1 km/h 27.4 km/h 59.2% 0 mm 0 W/m2
16:29 6.6 °C -0.7 °C 1023.2 hPa WNW 7.4 km/h 27.4 km/h 60% 0 mm 0 W/m2
16:34 6.4 °C -0.7 °C 1023.6 hPa WNW 1.4 km/h 27.4 km/h 60.5% 0 mm 0 W/m2
16:39 6.3 °C -0.6 °C 1023.6 hPa WNW 1.1 km/h 6.4 km/h 61.1% 0 mm 0 W/m2
16:44 6.2 °C -0.5 °C 1023.9 hPa NW 1 km/h 6.4 km/h 62% 0 mm 0 W/m2
16:49 6.1 °C -0.3 °C 1023.9 hPa North 0.2 km/h 6.4 km/h 63.4% 0 mm 0 W/m2
16:54 6.1 °C -0.1 °C 1023.9 hPa North 0.2 km/h 6.4 km/h 64.7% 0 mm 0 W/m2
16:59 6 °C 0.1 °C 1023.9 hPa North 0.3 km/h 6.4 km/h 65.8% 0 mm 0 W/m2
17:04 5.9 °C 0.2 °C 1024.3 hPa NNW 1.4 km/h 8 km/h 66.8% 0 mm 0 W/m2
17:09 5.7 °C 0.3 °C 1024.3 hPa NW 0.8 km/h 8 km/h 67.8% 0 mm 0 W/m2
17:14 5.7 °C 0.3 °C 1024.6 hPa NNW 1.6 km/h 8 km/h 68.8% 0 mm 0 W/m2
17:19 5.6 °C 0.5 °C 1024.6 hPa NNW 3.1 km/h 20.9 km/h 69.9% 0 mm 0 W/m2
17:24 5.4 °C 0.6 °C 1024.6 hPa NW 3.5 km/h 20.9 km/h 70.7% 0 mm 0 W/m2
17:29 5.3 °C 0.5 °C 1024.6 hPa NW 3.1 km/h 20.9 km/h 71% 0 mm 0 W/m2
17:34 5.2 °C 0.4 °C 1024.6 hPa WNW 1.8 km/h 20.9 km/h 71% 0 mm 0 W/m2
17:39 5.2 °C 0.4 °C 1024.6 hPa NW 4.2 km/h 20.9 km/h 71.5% 0 mm 0 W/m2
17:44 5.1 °C 0.3 °C 1024.9 hPa WNW 7.6 km/h 22.5 km/h 71.3% 0 mm 0 W/m2
17:49 5.1 °C -0.2 °C 1024.9 hPa WNW 14.6 km/h 29 km/h 69% 0 mm 0 W/m2
17:54 5.1 °C -0.4 °C 1025.3 hPa NW 9.2 km/h 35.4 km/h 67.5% 0 mm 0 W/m2
17:59 5.2 °C -0.4 °C 1025.3 hPa WNW 12.2 km/h 35.4 km/h 67% 0 mm 0 W/m2
18:04 5.2 °C -0.6 °C 1025.3 hPa NW 8.4 km/h 35.4 km/h 66.3% 0 mm 0 W/m2
18:09 5.1 °C -0.7 °C 1025.6 hPa NW 2.4 km/h 22.5 km/h 66% 0 mm 0 W/m2
18:14 5.1 °C -0.8 °C 1025.6 hPa NW 2.6 km/h 22.5 km/h 66% 0 mm 0 W/m2
18:19 5 °C -0.8 °C 1025.6 hPa NNW 2.1 km/h 22.5 km/h 66.3% 0 mm 0 W/m2
18:24 4.9 °C -0.7 °C 1025.6 hPa NNW 0.5 km/h 22.5 km/h 67% 0 mm 0 W/m2
18:29 4.8 °C -0.7 °C 1026 hPa NNW 0.6 km/h 22.5 km/h 67% 0 mm 0 W/m2
18:34 4.8 °C -0.8 °C 1026 hPa NNW 0.8 km/h 22.5 km/h 67% 0 mm 0 W/m2
18:39 4.7 °C -0.8 °C 1026 hPa NNW 0.3 km/h 4.8 km/h 67.7% 0 mm 0 W/m2
18:44 4.6 °C -0.8 °C 1026 hPa NNW 0.8 km/h 6.4 km/h 68% 0 mm 0 W/m2
18:49 4.6 °C -0.6 °C 1026.3 hPa NNW 0.3 km/h 6.4 km/h 69% 0 mm 0 W/m2
18:54 4.6 °C -0.7 °C 1026.3 hPa NNW 0.2 km/h 6.4 km/h 69% 0 mm 0 W/m2
18:59 4.5 °C -0.6 °C 1026.3 hPa WNW 2.1 km/h 12.9 km/h 69.4% 0 mm 0 W/m2
19:04 4.5 °C -0.6 °C 1026.3 hPa NW 4 km/h 19.3 km/h 69.8% 0 mm 0 W/m2
19:09 4.4 °C -0.8 °C 1026.3 hPa NW 5 km/h 19.3 km/h 68.8% 0 mm 0 W/m2
19:14 4.5 °C -0.9 °C 1026.3 hPa NW 6.9 km/h 22.5 km/h 68% 0 mm 0 W/m2
19:19 4.5 °C -1.3 °C 1026.6 hPa NW 6.6 km/h 22.5 km/h 66.2% 0 mm 0 W/m2
19:24 4.6 °C -1.3 °C 1026.6 hPa NW 9.2 km/h 29 km/h 65.9% 0 mm 0 W/m2
19:29 4.6 °C -1.5 °C 1026.6 hPa NW 10 km/h 29 km/h 64.8% 0 mm 0 W/m2
19:34 4.6 °C -1.5 °C 1026.6 hPa WNW 8 km/h 30.6 km/h 64.6% 0 mm 0 W/m2
19:39 4.6 °C -1.7 °C 1026.6 hPa NW 5.8 km/h 30.6 km/h 64% 0 mm 0 W/m2
19:44 4.6 °C -1.7 °C 1026.6 hPa NW 7.2 km/h 30.6 km/h 64% 0 mm 0 W/m2
19:49 4.5 °C -1.7 °C 1027 hPa WNW 5 km/h 30.6 km/h 64% 0 mm 0 W/m2
19:54 4.4 °C -1.8 °C 1027 hPa WNW 7.4 km/h 30.6 km/h 64% 0 mm 0 W/m2
19:59 4.4 °C -1.8 °C 1027 hPa WNW 10 km/h 30.6 km/h 64% 0 mm 0 W/m2
20:00 4.3 °C -1.9 °C 1027 hPa NW 3.2 km/h 30.6 km/h 64% 0 mm 0 W/m2
20:09 4.2 °C -1.9 °C 1027 hPa WNW 4.5 km/h 14.5 km/h 64% 0 mm 0 W/m2
20:14 4.2 °C -2.1 °C 1027.3 hPa NW 3.9 km/h 14.5 km/h 64% 0 mm 0 W/m2
20:19 4.1 °C -2.1 °C 1027.3 hPa NW 6.9 km/h 19.3 km/h 64% 0 mm 0 W/m2
20:24 4.1 °C -2.1 °C 1027.3 hPa NW 8 km/h 22.5 km/h 64% 0 mm 0 W/m2
20:29 4.1 °C -2.1 °C 1027.3 hPa NW 5 km/h 22.5 km/h 64% 0 mm 0 W/m2
20:34 4.1 °C -2.2 °C 1027.7 hPa NW 2.1 km/h 22.5 km/h 64% 0 mm 0 W/m2
20:39 4 °C -2.2 °C 1027.7 hPa WNW 4.5 km/h 17.7 km/h 64% 0 mm 0 W/m2
20:44 3.9 °C -2.3 °C 1027.7 hPa NW 5.8 km/h 17.7 km/h 64% 0 mm 0 W/m2
20:49 3.8 °C -2.2 °C 1027.7 hPa NW 5 km/h 20.9 km/h 64.5% 0 mm 0 W/m2
20:54 3.8 °C -2.2 °C 1027.7 hPa NW 3.4 km/h 20.9 km/h 65% 0 mm 0 W/m2
20:59 3.8 °C -2.2 °C 1028 hPa NW 4.7 km/h 20.9 km/h 65% 0 mm 0 W/m2
21:04 3.7 °C -2.2 °C 1028 hPa NW 2.6 km/h 20.9 km/h 65% 0 mm 0 W/m2
21:09 3.7 °C -2.3 °C 1028 hPa NW 10.1 km/h 20.9 km/h 65% 0 mm 0 W/m2
21:14 3.7 °C -2.3 °C 1028 hPa WNW 4.7 km/h 20.9 km/h 65% 0 mm 0 W/m2
21:19 3.7 °C -2.3 °C 1028.3 hPa WNW 6.1 km/h 20.9 km/h 65% 0 mm 0 W/m2
21:24 3.6 °C -2.3 °C 1028.3 hPa NW 5.6 km/h 20.9 km/h 65% 0 mm 0 W/m2
21:29 3.6 °C -2.2 °C 1028.7 hPa WNW 1.9 km/h 20.9 km/h 65.8% 0 mm 0 W/m2
21:34 3.6 °C -2.2 °C 1028.7 hPa NW 1.3 km/h 20.9 km/h 66% 0 mm 0 W/m2
21:39 3.5 °C -2.3 °C 1028.7 hPa NW 1.1 km/h 6.4 km/h 66% 0 mm 0 W/m2
21:44 3.4 °C -2.3 °C 1028.7 hPa NW 1.6 km/h 8 km/h 66% 0 mm 0 W/m2
21:49 3.3 °C -2.2 °C 1028.7 hPa NW 5.8 km/h 22.5 km/h 66.8% 0 mm 0 W/m2
21:54 3.3 °C -2.3 °C 1029 hPa NW 3.9 km/h 22.5 km/h 66.8% 0 mm 0 W/m2
21:59 3.3 °C -2.3 °C 1028.7 hPa NW 5.1 km/h 22.5 km/h 67% 0 mm 0 W/m2
22:04 3.2 °C -2.3 °C 1028.7 hPa WNW 4 km/h 22.5 km/h 67% 0 mm 0 W/m2
22:09 3.2 °C -2.3 °C 1029 hPa WNW 1.3 km/h 16.1 km/h 67% 0 mm 0 W/m2
22:14 3.2 °C -2.4 °C 1029 hPa NW 2.1 km/h 16.1 km/h 67% 0 mm 0 W/m2
22:19 3.1 °C -2.4 °C 1029 hPa NW 1 km/h 16.1 km/h 67% 0 mm 0 W/m2
22:24 3 °C -2.5 °C 1029 hPa NW 0.3 km/h 16.1 km/h 67.2% 0 mm 0 W/m2
22:29 2.9 °C -2.4 °C 1029 hPa NW 0.3 km/h 16.1 km/h 67.9% 0 mm 0 W/m2
22:31 2.9 °C -2.6 °C 1029.3 hPa Calm   16.1 km/h 67% 0 mm 0 W/m2
23:09 2.4 °C -2.7 °C 1029.7 hPa Calm     69% 0 mm 0 W/m2
23:14 2.3 °C -2.7 °C 1030 hPa Calm     69.4% 0 mm 0 W/m2
23:19 2.2 °C -2.7 °C 1030 hPa Calm     70% 0 mm 0 W/m2
23:24 2.1 °C -2.8 °C 1030 hPa Calm     70% 0 mm 0 W/m2
23:29 1.9 °C -2.8 °C 1030 hPa Calm     71% 0 mm 0 W/m2
23:34 1.8 °C -2.9 °C 1030 hPa Calm     71.1% 0 mm 0 W/m2
23:39 1.7 °C -2.8 °C 1030 hPa Calm     72% 0 mm 0 W/m2
23:44 1.6 °C -2.9 °C 1030 hPa Calm     72.2% 0 mm 0 W/m2
23:49 1.4 °C -2.8 °C 1030 hPa Calm     73% 0 mm 0 W/m2
23:54 1.3 °C -2.8 °C 1030 hPa Calm     74% 0 mm 0 W/m2
23:59 1.2 °C -2.8 °C 1030 hPa Calm     75% 0 mm 0 W/m2
Hartford County Weather
Compliments of Weather Underground - 2 mb